Arjay, Kentucky
Current Conditions -  °F | °C
As of 10:15 AM on Monday 24 Nov 2014 (Local Time) from K1A6 Reporting Station
Broken Clouds Broken Clouds  
Wind Chill: 65°   Ceiling: 4300
Heat Index: 65°   Visibility: 10mi
Dew Point: 52°   Wind: 12mph
Humidity: 64%   Direction: 220°SW
Pressure: 29.66"   Gusts: 20mph
Location:  36.8°N, 83.65°W
Report Text: K1A6 241515Z AUTO 22010G17KT 10SM SCT035 BKN043 BKN050 18/11 A2966 RMK AO2 T01820112
Loading
Personal Weather Stations






























Interactive Weather Map New forecast layout! Learn more

10-Day Weather Forecast

Advertisements
Track Severe Weather on mobile